Accueil
METAR-TAF:

METAR-TAF

Aéroports :

Wendover Airport

Wendover, Utah, États-Unis

latitude: 40-44N, longitude: 114-02W, altitude: 1291 m

Observation

Le bulletin a été fait il y a 24 minutes, à 01:56 UTC
Vent 3 kt de ouest
Température 2°C
Humidité 64%
Pression 1028 hPa
Visibilité: 16.1 km
Ciel clair

METAR: KENV 170156Z AUTO 27003KT 10SM CLR 02/M04 A3035 RMK AO2 SLP308 T00221039 FZRANO PNO $

Heure: 19:20 (02:20 UTC)

Prévision

Le bulletin a été fait il y a 2 heures et 37 minutes, à 23:43 UTC
Prévision valable du 17 à 00 UTC au 17 à 24 UTC
Vent 3 kt de direction variable
Visibilité: 10 km
Quelques nuages à une hauteur de 20000 ft

TAF: KENV 162343Z 1700/1724 VRB03KT P6SM FEW200

Observations et prévisions météorologiques de plus de 4000 aéroports (messages METAR et TAF).

Les stations disponibles sont représentées par des disques jaunes et rouges sur la carte.

Passer la souris dessus pour voir le nom de la station.

Cliquer dessus pour voir les observations et prévisions météorologiques.

Pour changer de carte: cliquez sur les boutons verts avec une croix noire pour zoomer, sur le bouton vert avec un tiret pour effectuer un zoom arrière, ou sur les flèches vertes pour les cartes adjacentes.


METAR-TAF: